Agnew, Washington
Current Conditions -  °F | °C
As of 5:53 PM on Sunday 21 Dec 2014 (Local Time) from KCLM Reporting Station
Few Clouds Few Clouds  
Wind Chill: 50°   Ceiling: Unl
Heat Index: 50°   Visibility: 10mi
Dew Point: 41°   Wind: 8mph
Humidity: 71%   Direction: 280°W
Pressure: 30.03"   Gusts: NA
Location:  48.0203°N, 123.478°W
Report Text: KCLM 220153Z AUTO 28007KT 10SM FEW065 10/05 A3003 RMK AO2 SLP169 T01000050 TSNO $
Loading
Personal Weather Stations






























Interactive Weather Map New forecast layout! Learn more

10-Day Weather Forecast

Advertisements
Track Severe Weather on mobile